San Antonio, Texas
Traffic Map
Current Weather Conditions
San Antonio, Texas
Clear
Clear
18°
Feels Like: 18°
Wind Chill: 18° Ceiling: Unl
Heat Index: 18° Visibility: 10mi
Dew Point: Wind: 9mph
Humidity: 47% Direction: 10° (N)
Pressure: 29.8in Gusts: 0mph
Raw Report DataKSAT 270551Z 01008KT 10SM CLR 18/07 A2980 RMK AO2 SLP073 60000 T01830067 10289 20178 403330178 52013
Traffic Incident Summary
Active as of:
Severity:
Category:
InformationThere was an issue retrieving the traffic information for this location. Please try a different location or try again shortly.
Advertisements
Track Severe Weather on mobile